Time;durP1;ratioP1;P1;durP2;ratioP2;P2;SDS_P1;SDS_P2;PMS_P1;PMS_P2;Temp;Humidity;BMP_temperature;BMP_pressure;BME280_temperature;BME280_humidity;BME280_pressure;Samples;Min_cycle;Max_cycle;Signal;HPM_P1;HPM_P2
2020/12/08 00:00:30;;;;;;;4.55;3.10;;;17.90;45.80;;;;;;5073581;28;20554;-51
2020/12/08 00:02:56;;;;;;;4.97;2.67;;;17.90;45.80;;;;;;5053861;28;20101;-51
2020/12/08 00:05:23;;;;;;;3.00;2.60;;;17.90;45.70;;;;;;5084546;28;20048;-48
2020/12/08 00:07:50;;;;;;;8.48;2.05;;;17.90;45.70;;;;;;5073734;28;20450;-50
2020/12/08 00:10:19;;;;;;;4.13;2.20;;;17.90;45.70;;;;;;5078795;28;20054;-51
2020/12/08 00:12:46;;;;;;;4.75;2.63;;;17.90;45.70;;;;;;5081802;28;20040;-48
2020/12/08 00:15:13;;;;;;;3.72;2.63;;;17.90;45.70;;;;;;5085180;28;20051;-48
2020/12/08 00:17:40;;;;;;;6.30;3.00;;;17.90;45.70;;;;;;5071015;28;20385;-49
2020/12/08 00:20:08;;;;;;;3.33;2.95;;;17.90;45.70;;;;;;5070570;28;20499;-48
2020/12/08 00:22:35;;;;;;;5.60;3.97;;;17.90;45.70;;;;;;5073673;28;20053;-53
2020/12/08 00:25:03;;;;;;;4.45;3.35;;;17.90;45.70;;;;;;5073283;28;20060;-49
2020/12/08 00:27:29;;;;;;;6.45;4.10;;;17.90;45.60;;;;;;5074143;28;20037;-50
2020/12/08 00:29:56;;;;;;;7.95;4.57;;;17.90;45.60;;;;;;5089042;28;20128;-50
2020/12/08 00:32:22;;;;;;;4.32;3.50;;;17.90;45.60;;;;;;5082751;28;20052;-51
2020/12/08 00:34:50;;;;;;;12.18;3.70;;;18.00;45.70;;;;;;5092211;28;20503;-48
2020/12/08 00:37:17;;;;;;;6.22;4.25;;;17.90;45.70;;;;;;5090567;28;20507;-49
2020/12/08 00:39:44;;;;;;;6.80;3.95;;;17.90;45.70;;;;;;5090606;28;20559;-49
2020/12/08 00:42:11;;;;;;;9.07;4.20;;;17.90;45.70;;;;;;5086464;28;20614;-50
2020/12/08 00:44:38;;;;;;;4.93;2.78;;;17.90;45.80;;;;;;5088655;28;20554;-51
2020/12/08 00:47:04;;;;;;;5.25;3.78;;;17.90;45.80;;;;;;5076493;28;20040;-49
2020/12/08 00:49:31;;;;;;;4.20;3.03;;;18.00;45.80;;;;;;5074712;28;20522;-47
2020/12/08 00:51:59;;;;;;;5.07;3.55;;;17.90;45.80;;;;;;5089423;28;20119;-48
2020/12/08 00:54:28;;;;;;;5.47;2.85;;;18.00;46.30;;;;;;5072675;28;20044;-50
2020/12/08 00:56:54;;;;;;;4.38;2.28;;;18.00;46.70;;;;;;5070472;28;20045;-52
2020/12/08 00:59:21;;;;;;;4.07;2.63;;;17.90;46.90;;;;;;5071976;28;20126;-50
2020/12/08 01:01:50;;;;;;;6.95;3.00;;;17.90;47.10;;;;;;5055434;28;20044;-49
2020/12/08 01:04:17;;;;;;;3.58;2.25;;;17.90;47.20;;;;;;5071905;28;20147;-48
2020/12/08 01:06:45;;;;;;;4.40;2.72;;;18.00;47.30;;;;;;5067738;28;20515;-49
2020/12/08 01:09:12;;;;;;;3.40;2.25;;;18.00;47.20;;;;;;5072706;28;20063;-47
2020/12/08 01:11:43;;;;;;;3.28;2.47;;;18.00;47.20;;;;;;5077204;28;20068;-48
2020/12/08 01:14:13;;;;;;;2.10;1.70;;;18.00;47.20;;;;;;5072194;28;20044;-48
2020/12/08 01:16:41;;;;;;;2.15;1.60;;;18.00;47.90;;;;;;5071380;28;20067;-49
2020/12/08 01:19:08;;;;;;;3.95;1.73;;;17.90;47.00;;;;;;5070431;28;20040;-51
2020/12/08 01:21:35;;;;;;;3.90;2.03;;;17.90;47.50;;;;;;5069839;28;20044;-49
2020/12/08 01:24:02;;;;;;;3.17;1.90;;;18.00;46.90;;;;;;5078474;28;20071;-47
2020/12/08 01:26:30;;;;;;;2.72;1.50;;;18.00;46.80;;;;;;5075637;28;20051;-52
2020/12/08 01:29:01;;;;;;;4.07;1.88;;;18.00;46.80;;;;;;5088581;28;20055;-51
2020/12/08 01:31:34;;;;;;;2.08;1.70;;;17.90;46.60;;;;;;5080860;28;20123;-53
2020/12/08 01:34:07;;;;;;;3.05;1.63;;;17.90;46.60;;;;;;5087279;28;20059;-48
2020/12/08 01:36:34;;;;;;;3.58;1.65;;;17.90;46.60;;;;;;5076718;28;20135;-51
2020/12/08 01:39:02;;;;;;;2.85;1.67;;;18.00;46.60;;;;;;5088299;28;20044;-51
2020/12/08 01:41:30;;;;;;;4.68;2.13;;;17.90;46.40;;;;;;5075629;28;20047;-49
2020/12/08 01:43:57;;;;;;;2.65;1.30;;;18.00;46.40;;;;;;5073112;28;20048;-50
2020/12/08 01:46:27;;;;;;;1.48;1.00;;;17.90;46.30;;;;;;5077494;28;20041;-52
2020/12/08 01:48:57;;;;;;;1.63;0.75;;;17.90;46.20;;;;;;5062025;28;20051;-51
2020/12/08 01:51:24;;;;;;;2.00;0.93;;;17.90;46.20;;;;;;5084586;28;20040;-49
2020/12/08 01:53:52;;;;;;;2.15;1.30;;;17.90;46.10;;;;;;5056224;28;20046;-48
2020/12/08 01:56:22;;;;;;;1.70;1.00;;;17.90;46.10;;;;;;5071757;28;20156;-48
2020/12/08 01:58:55;;;;;;;0.85;0.70;;;17.90;46.10;;;;;;5057850;28;20044;-47
2020/12/08 02:01:23;;;;;;;1.38;0.98;;;17.90;46.00;;;;;;5060184;28;20041;-47
2020/12/08 02:03:50;;;;;;;1.27;0.80;;;17.90;45.90;;;;;;5075605;28;20044;-47
2020/12/08 02:06:17;;;;;;;0.80;0.73;;;17.90;45.90;;;;;;5060058;28;20067;-49
2020/12/08 02:08:44;;;;;;;5.90;1.02;;;17.80;45.70;;;;;;5071364;28;20431;-48
2020/12/08 02:11:21;;;;;;;1.77;0.77;;;17.80;45.70;;;;;;5071993;28;20043;-48
2020/12/08 02:13:49;;;;;;;1.77;0.77;;;17.80;45.60;;;;;;5071520;28;20048;-48
2020/12/08 02:16:16;;;;;;;1.00;0.75;;;17.90;45.70;;;;;;5063165;28;20126;-47
2020/12/08 02:18:44;;;;;;;1.98;0.88;;;17.80;46.20;;;;;;5059680;28;20097;-49
2020/12/08 02:21:12;;;;;;;1.75;0.93;;;17.80;45.60;;;;;;5087149;28;20127;-51
2020/12/08 02:23:51;;;;;;;0.70;0.50;;;17.80;45.60;;;;;;5069791;28;20044;-47
2020/12/08 02:26:23;;;;;;;1.58;1.10;;;17.80;45.70;;;;;;5070418;28;20511;-50
2020/12/08 02:28:50;;;;;;;1.10;0.77;;;17.80;45.70;;;;;;5074014;28;20090;-51
2020/12/08 02:31:17;;;;;;;1.88;0.90;;;17.80;45.70;;;;;;5063687;28;20055;-48
2020/12/08 02:33:44;;;;;;;0.70;0.52;;;17.70;45.60;;;;;;5080830;28;20429;-50
2020/12/08 02:36:11;;;;;;;7.65;0.70;;;17.70;45.60;;;;;;5067716;28;20043;-49
2020/12/08 02:38:38;;;;;;;1.27;0.75;;;17.70;45.70;;;;;;5087206;28;20057;-53
2020/12/08 02:41:05;;;;;;;0.77;0.22;;;17.70;45.60;;;;;;5056594;28;20048;-49
2020/12/08 02:43:33;;;;;;;1.45;0.50;;;17.70;45.50;;;;;;5065587;28;20048;-48
2020/12/08 02:46:01;;;;;;;1.08;0.75;;;17.70;45.50;;;;;;5064771;28;20048;-48
2020/12/08 02:48:28;;;;;;;1.52;0.70;;;17.70;45.50;;;;;;5056644;28;20522;-48
2020/12/08 02:50:54;;;;;;;0.55;0.30;;;17.70;45.50;;;;;;5069771;28;20039;-47
2020/12/08 02:53:22;;;;;;;1.65;0.95;;;17.70;45.40;;;;;;5071024;28;20583;-48
2020/12/08 02:55:49;;;;;;;0.85;0.40;;;17.70;45.40;;;;;;5065485;28;20831;-47
2020/12/08 02:58:18;;;;;;;1.05;0.90;;;17.70;45.40;;;;;;5062895;28;20421;-47
2020/12/08 03:00:47;;;;;;;0.70;0.50;;;17.60;45.40;;;;;;5066734;28;20458;-47
2020/12/08 03:03:14;;;;;;;1.45;0.82;;;17.60;45.40;;;;;;5071873;28;20671;-48
2020/12/08 03:05:40;;;;;;;1.77;0.52;;;17.60;45.40;;;;;;5086414;28;20048;-50
2020/12/08 03:08:07;;;;;;;3.00;0.50;;;17.60;45.40;;;;;;5074425;28;20068;-47
2020/12/08 03:10:35;;;;;;;0.82;0.60;;;17.60;46.00;;;;;;5059688;28;20139;-50
2020/12/08 03:13:02;;;;;;;1.00;0.80;;;17.60;45.50;;;;;;5060808;28;20044;-50
2020/12/08 03:15:32;;;;;;;5.93;0.32;;;17.60;45.40;;;;;;5082668;28;20047;-48
2020/12/08 03:17:58;;;;;;;1.15;0.50;;;17.60;45.50;;;;;;5054860;28;20137;-49
2020/12/08 03:20:27;;;;;;;1.55;0.30;;;17.60;45.50;;;;;;5070041;28;20040;-49
2020/12/08 03:22:54;;;;;;;1.77;0.57;;;17.60;45.50;;;;;;5055870;28;20047;-47
2020/12/08 03:25:21;;;;;;;0.52;0.40;;;17.50;45.40;;;;;;5058841;28;20106;-50
2020/12/08 03:27:50;;;;;;;1.42;0.70;;;17.60;45.50;;;;;;5059000;28;20055;-50
2020/12/08 03:30:19;;;;;;;0.60;0.60;;;17.50;45.50;;;;;;5054812;28;20040;-49
2020/12/08 03:32:49;;;;;;;1.10;0.77;;;17.50;45.50;;;;;;5068265;28;20121;-47
2020/12/08 03:35:19;;;;;;;0.57;0.30;;;17.50;45.50;;;;;;5054269;28;20647;-47
2020/12/08 03:37:46;;;;;;;1.58;0.50;;;17.50;45.50;;;;;;5058859;28;20123;-52
2020/12/08 03:40:14;;;;;;;0.80;0.43;;;17.50;45.50;;;;;;5054291;28;20482;-52
2020/12/08 03:42:41;;;;;;;0.65;0.60;;;17.50;45.50;;;;;;5057254;28;20040;-47
2020/12/08 03:45:09;;;;;;;1.10;0.50;;;17.50;45.50;;;;;;5066841;28;20048;-47
2020/12/08 03:47:59;;;;;;;1.42;0.65;;;17.50;45.50;;;;;;5054194;28;20058;-47
2020/12/08 03:50:33;;;;;;;1.40;1.05;;;17.50;45.50;;;;;;5068922;28;20430;-49
2020/12/08 03:53:01;;;;;;;9.10;0.70;;;17.40;45.40;;;;;;5056740;28;20117;-48
2020/12/08 03:55:33;;;;;;;0.98;0.70;;;17.40;45.50;;;;;;5057960;28;20067;-47
2020/12/08 03:58:01;;;;;;;2.67;0.77;;;17.40;45.50;;;;;;5059220;28;20052;-47
2020/12/08 04:00:30;;;;;;;2.30;0.75;;;17.40;46.00;;;;;;5065133;28;20537;-47
2020/12/08 04:02:57;;;;;;;0.43;0.43;;;17.50;45.50;;;;;;5067210;28;20513;-49
2020/12/08 04:05:27;;;;;;;0.95;0.95;;;17.40;45.40;;;;;;5052841;28;20059;-47
2020/12/08 04:07:53;;;;;;;1.55;0.98;;;17.40;45.40;;;;;;5055192;28;20044;-47
2020/12/08 04:10:25;;;;;;;0.80;0.70;;;17.40;45.30;;;;;;5058129;28;20064;-47
2020/12/08 04:12:53;;;;;;;0.50;0.50;;;17.40;45.30;;;;;;5057955;28;20052;-51
2020/12/08 04:15:20;;;;;;;0.45;0.45;;;17.40;45.20;;;;;;5060677;28;20052;-49
2020/12/08 04:17:47;;;;;;;1.48;0.88;;;17.40;45.20;;;;;;5068781;28;20058;-47
2020/12/08 04:20:14;;;;;;;0.73;0.35;;;17.40;45.20;;;;;;5070935;28;20495;-47
2020/12/08 04:22:41;;;;;;;0.82;0.82;;;17.40;45.20;;;;;;5058402;28;20134;-48
2020/12/08 04:25:08;;;;;;;1.83;0.63;;;17.40;45.20;;;;;;5058198;28;20053;-49
2020/12/08 04:27:36;;;;;;;1.38;0.88;;;17.40;45.20;;;;;;5057904;28;20054;-49
2020/12/08 04:30:07;;;;;;;1.45;1.20;;;17.40;45.20;;;;;;5053962;28;20491;-48
2020/12/08 04:32:40;;;;;;;2.03;1.05;;;17.40;45.20;;;;;;5067721;28;20052;-48
2020/12/08 04:35:07;;;;;;;1.08;0.70;;;17.40;45.20;;;;;;5088241;28;20093;-48
2020/12/08 04:37:34;;;;;;;0.95;0.70;;;17.40;45.20;;;;;;5074290;28;20140;-47
2020/12/08 04:40:00;;;;;;;1.25;0.88;;;17.40;45.20;;;;;;5073352;28;20385;-46
2020/12/08 04:42:27;;;;;;;2.95;1.45;;;17.40;45.20;;;;;;5071173;28;20041;-48
2020/12/08 04:44:56;;;;;;;1.60;1.15;;;17.30;45.10;;;;;;5084943;28;20067;-47
2020/12/08 04:47:22;;;;;;;2.40;1.02;;;17.30;45.10;;;;;;5071201;28;20079;-46
2020/12/08 04:49:53;;;;;;;1.05;0.93;;;17.30;45.10;;;;;;5083116;28;20060;-48
2020/12/08 04:52:20;;;;;;;1.73;1.33;;;17.30;45.10;;;;;;5076248;28;20075;-48
2020/12/08 04:54:47;;;;;;;1.17;1.08;;;17.30;45.00;;;;;;5076960;28;20060;-48
2020/12/08 04:57:13;;;;;;;1.10;1.00;;;17.30;45.00;;;;;;5072186;28;20048;-49
2020/12/08 04:59:40;;;;;;;3.10;0.93;;;17.30;45.00;;;;;;5069298;28;20597;-47
2020/12/08 05:02:06;;;;;;;6.65;0.80;;;17.30;45.00;;;;;;5072898;28;20044;-48
2020/12/08 05:04:33;;;;;;;1.08;0.98;;;17.30;45.00;;;;;;5080341;28;20048;-48
2020/12/08 05:07:04;;;;;;;1.33;1.30;;;17.30;45.00;;;;;;5081271;28;20052;-46
2020/12/08 05:09:31;;;;;;;1.80;1.40;;;17.30;45.00;;;;;;5082545;28;20039;-51
2020/12/08 05:11:59;;;;;;;7.00;1.17;;;17.30;45.00;;;;;;5070226;28;20508;-50
2020/12/08 05:14:26;;;;;;;2.97;1.00;;;17.30;45.00;;;;;;5073768;28;20519;-49
2020/12/08 05:17:02;;;;;;;1.75;1.35;;;17.30;45.00;;;;;;5085524;28;20040;-53
2020/12/08 05:19:29;;;;;;;1.30;1.20;;;17.30;45.00;;;;;;5078225;28;20098;-49
2020/12/08 05:21:56;;;;;;;3.00;1.58;;;17.30;45.00;;;;;;5078501;28;20067;-48
2020/12/08 05:24:27;;;;;;;1.58;1.48;;;17.30;45.00;;;;;;5087282;28;20040;-50
2020/12/08 05:26:57;;;;;;;2.13;1.75;;;17.30;45.00;;;;;;5072999;28;20087;-47
2020/12/08 05:29:24;;;;;;;1.95;1.35;;;17.30;45.00;;;;;;5056403;28;20059;-51
2020/12/08 05:31:51;;;;;;;1.88;1.30;;;17.30;44.90;;;;;;5076971;28;20124;-50
2020/12/08 05:34:19;;;;;;;3.03;1.63;;;17.30;44.90;;;;;;5076395;28;20151;-48
2020/12/08 05:36:49;;;;;;;1.60;1.30;;;17.20;44.80;;;;;;5076303;28;20048;-49
2020/12/08 05:39:20;;;;;;;3.08;1.55;;;17.30;44.80;;;;;;5075915;28;20071;-48
2020/12/08 05:41:47;;;;;;;6.18;2.30;;;17.30;44.80;;;;;;5071699;28;20048;-47
2020/12/08 05:44:18;;;;;;;2.25;1.27;;;17.20;45.10;;;;;;5069747;28;20044;-49
2020/12/08 05:46:47;;;;;;;3.60;1.50;;;17.20;44.80;;;;;;5071264;28;20086;-49
2020/12/08 05:49:15;;;;;;;4.30;2.13;;;17.20;44.70;;;;;;5070619;28;20127;-46
2020/12/08 05:51:45;;;;;;;2.20;1.63;;;17.20;44.70;;;;;;5076260;28;20078;-47
2020/12/08 05:54:17;;;;;;;8.52;2.10;;;17.20;44.70;;;;;;5086368;28;20051;-50
2020/12/08 05:56:44;;;;;;;3.58;1.90;;;17.20;44.70;;;;;;5083698;28;20052;-47
2020/12/08 05:59:10;;;;;;;4.28;1.75;;;17.20;44.70;;;;;;5075420;28;20060;-48
2020/12/08 06:01:48;;;;;;;3.47;2.05;;;17.20;44.60;;;;;;5082363;28;20523;-48
2020/12/08 06:04:15;;;;;;;6.20;2.00;;;17.30;44.70;;;;;;5078804;28;20140;-47
2020/12/08 06:06:49;;;;;;;4.82;2.08;;;17.20;44.70;;;;;;5081774;28;20535;-47
2020/12/08 06:09:25;;;;;;;3.40;2.28;;;17.20;44.60;;;;;;5085801;28;20036;-48
2020/12/08 06:11:52;;;;;;;3.13;1.77;;;17.20;44.70;;;;;;5086200;28;20151;-49
2020/12/08 06:14:30;;;;;;;4.50;1.95;;;17.20;44.70;;;;;;5090060;28;20048;-50
2020/12/08 06:17:00;;;;;;;4.13;1.88;;;17.20;44.70;;;;;;5088007;28;20523;-47
2020/12/08 06:19:27;;;;;;;4.18;2.42;;;17.20;44.70;;;;;;5088742;28;20052;-48
2020/12/08 06:21:54;;;;;;;4.68;2.13;;;17.20;44.70;;;;;;5085376;28;20098;-48
2020/12/08 06:24:20;;;;;;;3.10;1.80;;;17.20;44.60;;;;;;5079264;28;20044;-48
2020/12/08 06:26:47;;;;;;;2.03;1.92;;;17.20;44.70;;;;;;5081133;28;20127;-48
2020/12/08 06:29:13;;;;;;;1.77;1.67;;;17.20;44.70;;;;;;5086811;28;20060;-48
2020/12/08 06:31:42;;;;;;;3.08;2.20;;;17.20;44.70;;;;;;5088660;28;20067;-50
2020/12/08 06:34:10;;;;;;;4.15;2.17;;;17.20;44.70;;;;;;5088454;28;20060;-51
2020/12/08 06:36:36;;;;;;;3.90;1.67;;;17.20;44.70;;;;;;5088266;28;20101;-51
2020/12/08 06:39:05;;;;;;;3.70;1.60;;;17.20;44.70;;;;;;5088512;28;20040;-50
2020/12/08 06:41:33;;;;;;;2.72;1.55;;;17.20;44.70;;;;;;5087076;28;20038;-50
2020/12/08 06:44:00;;;;;;;2.25;1.63;;;17.20;44.70;;;;;;5086918;28;20121;-51
2020/12/08 06:46:27;;;;;;;4.22;2.50;;;17.20;44.70;;;;;;5086080;28;20461;-49
2020/12/08 06:49:04;;;;;;;3.60;1.60;;;17.20;44.70;;;;;;5085594;28;20457;-49
2020/12/08 06:51:32;;;;;;;2.22;2.08;;;17.20;44.60;;;;;;5086236;28;20485;-50
2020/12/08 06:53:59;;;;;;;4.90;2.25;;;17.20;44.60;;;;;;5082483;28;20056;-51
2020/12/08 06:56:29;;;;;;;4.03;1.80;;;17.20;44.70;;;;;;5088027;28;20457;-50
2020/12/08 06:58:56;;;;;;;2.38;1.52;;;17.20;44.70;;;;;;5085426;28;20103;-50
2020/12/08 07:01:23;;;;;;;2.90;1.70;;;17.20;44.70;;;;;;5084818;28;20123;-55
2020/12/08 07:03:50;;;;;;;2.25;1.40;;;17.20;44.60;;;;;;5088224;28;20036;-50
2020/12/08 07:06:17;;;;;;;5.00;1.42;;;17.20;44.60;;;;;;5087792;28;20043;-51
2020/12/08 07:08:48;;;;;;;3.70;1.48;;;17.30;44.70;;;;;;5088002;28;20121;-51
2020/12/08 07:11:19;;;;;;;5.85;2.22;;;17.20;44.70;;;;;;5087810;28;20055;-51
2020/12/08 07:13:59;;;;;;;2.30;1.70;;;17.30;44.70;;;;;;5088416;28;20052;-50
2020/12/08 07:16:28;;;;;;;1.85;1.65;;;17.30;45.20;;;;;;5087124;28;20047;-48
2020/12/08 07:18:55;;;;;;;2.55;1.23;;;17.20;44.70;;;;;;5082028;28;20044;-49
2020/12/08 07:21:22;;;;;;;2.63;1.02;;;17.30;44.70;;;;;;5087480;28;20051;-48
2020/12/08 07:23:53;;;;;;;9.63;2.15;;;17.20;44.70;;;;;;5085995;28;20044;-50
2020/12/08 07:26:23;;;;;;;1.63;1.52;;;17.30;44.70;;;;;;5072883;28;20056;-50
2020/12/08 07:28:50;;;;;;;4.53;1.70;;;17.20;44.70;;;;;;5069288;28;20068;-52
2020/12/08 07:31:19;;;;;;;5.90;2.33;;;17.20;44.60;;;;;;5077872;28;20090;-52
2020/12/08 07:33:46;;;;;;;2.28;1.40;;;17.30;44.60;;;;;;5082148;28;20041;-51
2020/12/08 07:36:26;;;;;;;1.15;1.13;;;17.20;44.50;;;;;;5070248;28;20068;-51
2020/12/08 07:38:55;;;;;;;3.63;1.15;;;17.30;44.60;;;;;;5069968;28;20049;-51
2020/12/08 07:41:25;;;;;;;3.28;2.03;;;17.30;44.60;;;;;;5072279;28;20048;-51
2020/12/08 07:43:52;;;;;;;1.50;1.40;;;17.30;44.60;;;;;;5083833;28;20503;-49
2020/12/08 07:46:23;;;;;;;2.60;1.70;;;17.30;44.50;;;;;;5083476;28;20085;-51
2020/12/08 07:49:05;;;;;;;1.77;1.63;;;17.30;44.50;;;;;;5074387;28;20135;-53
2020/12/08 07:51:32;;;;;;;2.45;1.15;;;17.30;44.50;;;;;;5074154;28;20040;-52
2020/12/08 07:54:01;;;;;;;3.42;2.38;;;17.30;44.50;;;;;;5075040;28;20040;-52
2020/12/08 07:56:30;;;;;;;5.13;2.03;;;17.30;44.50;;;;;;5076261;28;20058;-53
2020/12/08 07:58:57;;;;;;;2.10;1.88;;;17.30;44.50;;;;;;5067657;28;20049;-52
2020/12/08 08:01:25;;;;;;;5.70;2.33;;;17.30;44.50;;;;;;5066931;28;20041;-49
2020/12/08 08:03:51;;;;;;;2.58;2.08;;;17.30;44.50;;;;;;5057189;28;20507;-52
2020/12/08 08:06:19;;;;;;;12.63;5.85;;;17.30;44.60;;;;;;5076183;28;20143;-53
2020/12/08 08:08:46;;;;;;;3.03;2.38;;;17.30;44.50;;;;;;5076604;28;20044;-51
2020/12/08 08:11:14;;;;;;;2.30;2.05;;;17.20;44.40;;;;;;5084681;28;20076;-53
2020/12/08 08:13:41;;;;;;;5.90;3.28;;;17.30;44.50;;;;;;5079249;28;20040;-52
2020/12/08 08:16:10;;;;;;;5.28;2.80;;;17.30;44.60;;;;;;5079665;28;20137;-51
2020/12/08 08:18:36;;;;;;;3.90;1.90;;;17.30;44.50;;;;;;5070289;28;20044;-52
2020/12/08 08:21:04;;;;;;;6.03;2.30;;;17.30;44.70;;;;;;5084609;28;20591;-50
2020/12/08 08:23:31;;;;;;;4.18;2.75;;;17.30;44.80;;;;;;5080971;28;20046;-54
2020/12/08 08:25:58;;;;;;;2.78;2.28;;;17.30;44.80;;;;;;5081032;28;20105;-50
2020/12/08 08:28:26;;;;;;;3.47;2.50;;;17.30;44.90;;;;;;5075105;28;20430;-52
2020/12/08 08:30:53;;;;;;;2.67;1.95;;;17.30;44.80;;;;;;5053066;28;20072;-49
2020/12/08 08:33:19;;;;;;;2.85;1.63;;;17.30;44.70;;;;;;5085402;28;20056;-53
2020/12/08 08:35:46;;;;;;;2.05;1.88;;;17.40;44.70;;;;;;5083933;28;20056;-51
2020/12/08 08:38:12;;;;;;;3.00;2.15;;;17.40;44.70;;;;;;5084368;28;20048;-51
2020/12/08 08:40:39;;;;;;;3.08;1.77;;;17.40;44.60;;;;;;5073857;28;20151;-50
2020/12/08 08:43:06;;;;;;;2.63;1.17;;;17.40;44.60;;;;;;5076400;28;20060;-52
2020/12/08 08:45:33;;;;;;;2.78;1.48;;;17.40;44.50;;;;;;5073122;28;20098;-51
2020/12/08 08:48:00;;;;;;;6.70;1.95;;;17.40;44.50;;;;;;5085039;28;20044;-48
2020/12/08 08:50:26;;;;;;;3.22;2.05;;;17.40;44.40;;;;;;5078288;28;20801;-49
2020/12/08 08:52:53;;;;;;;1.85;1.42;;;17.40;44.30;;;;;;5070247;28;20419;-49
2020/12/08 08:55:20;;;;;;;4.85;2.13;;;17.40;44.30;;;;;;5085200;28;20044;-49
2020/12/08 08:57:47;;;;;;;4.85;1.80;;;17.40;44.40;;;;;;5083587;28;20060;-48
2020/12/08 09:00:13;;;;;;;2.97;1.70;;;17.40;44.30;;;;;;5069879;28;20395;-50
2020/12/08 09:02:41;;;;;;;2.63;1.75;;;17.40;44.30;;;;;;5089353;28;20048;-53
2020/12/08 09:05:08;;;;;;;2.53;2.33;;;17.40;44.30;;;;;;5087709;28;20135;-50
2020/12/08 09:07:34;;;;;;;5.13;1.77;;;17.50;44.30;;;;;;5087261;28;20060;-50
2020/12/08 09:10:01;;;;;;;5.03;2.72;;;17.50;44.30;;;;;;5082741;28;20051;-51
2020/12/08 09:12:28;;;;;;;5.05;2.05;;;17.50;44.30;;;;;;5086592;28;20048;-48
2020/12/08 09:14:57;;;;;;;3.20;1.83;;;17.50;44.10;;;;;;5078797;28;20050;-50
2020/12/08 09:17:24;;;;;;;3.22;1.88;;;17.50;44.20;;;;;;5089801;28;20048;-53
2020/12/08 09:19:52;;;;;;;2.15;1.50;;;17.50;44.10;;;;;;5089830;28;20119;-49
2020/12/08 09:22:21;;;;;;;2.38;2.17;;;17.50;44.00;;;;;;5085624;28;20040;-48
2020/12/08 09:24:48;;;;;;;2.33;1.83;;;17.50;44.00;;;;;;5089202;28;20401;-51
2020/12/08 09:27:15;;;;;;;3.55;1.98;;;17.50;44.00;;;;;;5089475;28;20528;-50
2020/12/08 09:29:41;;;;;;;6.00;1.60;;;17.50;44.00;;;;;;5087645;28;20049;-54
2020/12/08 09:32:08;;;;;;;2.85;2.63;;;17.50;44.00;;;;;;5089279;28;20570;-48
2020/12/08 09:34:35;;;;;;;2.92;2.25;;;17.50;44.00;;;;;;5088614;28;20097;-50
2020/12/08 09:37:02;;;;;;;1.98;1.33;;;17.50;44.00;;;;;;5086330;28;20737;-51
2020/12/08 09:39:30;;;;;;;9.55;2.35;;;17.50;44.00;;;;;;5086462;28;20036;-48
2020/12/08 09:41:57;;;;;;;3.88;1.30;;;17.50;44.10;;;;;;5083162;28;20131;-48
2020/12/08 09:44:25;;;;;;;2.20;1.15;;;17.50;43.90;;;;;;5090051;28;20507;-50
2020/12/08 09:46:52;;;;;;;1.55;1.42;;;17.50;43.90;;;;;;5084076;28;20137;-49
2020/12/08 09:49:19;;;;;;;2.58;1.98;;;17.50;43.90;;;;;;5088916;28;20131;-47
2020/12/08 09:51:46;;;;;;;1.27;1.05;;;17.50;43.90;;;;;;5084014;28;20094;-52
2020/12/08 09:54:13;;;;;;;3.13;2.13;;;17.50;43.80;;;;;;5084115;28;20127;-47
2020/12/08 09:56:40;;;;;;;1.83;1.70;;;17.50;43.70;;;;;;5088453;28;20044;-49
2020/12/08 09:59:07;;;;;;;5.68;2.17;;;17.50;43.70;;;;;;5083510;28;20040;-51
2020/12/08 10:01:34;;;;;;;4.85;1.95;;;17.50;43.70;;;;;;5088198;28;20048;-49
2020/12/08 10:04:02;;;;;;;2.30;1.95;;;17.50;43.60;;;;;;5084668;28;20048;-51
2020/12/08 10:06:28;;;;;;;3.97;2.25;;;17.50;43.60;;;;;;5088115;28;20507;-49
2020/12/08 10:08:56;;;;;;;3.92;2.15;;;17.50;43.60;;;;;;5088774;28;20052;-49
2020/12/08 10:11:24;;;;;;;2.15;2.00;;;17.50;43.60;;;;;;5084372;28;20139;-49
2020/12/08 10:13:51;;;;;;;4.03;2.25;;;17.60;43.60;;;;;;5085710;28;20523;-49
2020/12/08 10:16:19;;;;;;;3.22;2.33;;;17.60;43.50;;;;;;5083963;28;20062;-48
2020/12/08 10:18:47;;;;;;;2.47;1.92;;;17.50;43.40;;;;;;5083288;28;20068;-51
2020/12/08 10:21:14;;;;;;;4.28;1.92;;;17.60;43.40;;;;;;5085215;28;20043;-50
2020/12/08 10:23:41;;;;;;;2.40;2.20;;;17.60;43.40;;;;;;5085211;28;20131;-49
2020/12/08 10:26:10;;;;;;;3.25;2.95;;;17.60;43.50;;;;;;5084918;28;20044;-49
2020/12/08 10:28:38;;;;;;;7.35;3.15;;;17.50;43.50;;;;;;5083926;28;20125;-48
2020/12/08 10:31:04;;;;;;;5.68;2.55;;;17.50;43.50;;;;;;5086967;28;20524;-49
2020/12/08 10:33:31;;;;;;;8.15;2.20;;;17.60;43.50;;;;;;5085545;28;20154;-53
2020/12/08 10:35:58;;;;;;;7.45;2.80;;;17.60;43.50;;;;;;5087074;28;20596;-50
2020/12/08 10:38:25;;;;;;;4.28;2.80;;;17.60;43.50;;;;;;5089330;28;20047;-49
2020/12/08 10:40:51;;;;;;;10.00;4.13;;;17.60;43.50;;;;;;5088779;28;20511;-50
2020/12/08 10:43:19;;;;;;;4.50;3.35;;;17.60;42.80;;;;;;5088656;28;20558;-50
2020/12/08 10:45:47;;;;;;;7.07;3.03;;;17.60;42.20;;;;;;5083650;28;20618;-49
2020/12/08 10:48:14;;;;;;;6.72;3.13;;;17.60;42.40;;;;;;5084509;28;20055;-50
2020/12/08 10:50:40;;;;;;;5.18;3.45;;;17.60;42.10;;;;;;5087511;28;20051;-50
2020/12/08 10:53:07;;;;;;;5.55;2.15;;;17.60;42.00;;;;;;5065864;28;20055;-49
2020/12/08 10:55:34;;;;;;;3.50;2.53;;;17.60;41.70;;;;;;5086095;28;20036;-52
2020/12/08 10:58:02;;;;;;;4.28;2.85;;;17.60;41.60;;;;;;5084081;28;20071;-51
2020/12/08 11:00:29;;;;;;;18.48;8.73;;;17.60;41.70;;;;;;5082763;28;20068;-49
2020/12/08 11:02:57;;;;;;;6.93;4.57;;;17.60;42.40;;;;;;5083988;28;20055;-50
2020/12/08 11:05:24;;;;;;;9.32;4.43;;;17.60;42.10;;;;;;5083694;28;20159;-48
2020/12/08 11:07:51;;;;;;;7.03;4.38;;;17.60;42.50;;;;;;5087531;28;20040;-52
2020/12/08 11:10:17;;;;;;;7.38;4.68;;;17.60;42.50;;;;;;5064902;28;20056;-48
2020/12/08 11:12:44;;;;;;;7.18;3.50;;;17.60;42.00;;;;;;5083712;28;20055;-52
2020/12/08 11:15:11;;;;;;;5.20;4.05;;;17.60;41.80;;;;;;5087266;28;20036;-51
2020/12/08 11:17:41;;;;;;;7.43;4.18;;;17.60;41.70;;;;;;5085140;28;20410;-51
2020/12/08 11:20:09;;;;;;;4.63;3.08;;;17.60;41.60;;;;;;5087078;28;20063;-53
2020/12/08 11:22:36;;;;;;;3.80;3.05;;;17.60;41.70;;;;;;5085084;28;20051;-50
2020/12/08 11:25:04;;;;;;;4.80;3.95;;;17.60;41.80;;;;;;5066724;28;20048;-51
2020/12/08 11:27:31;;;;;;;7.82;4.10;;;17.70;41.70;;;;;;5083268;28;20441;-48
2020/12/08 11:29:57;;;;;;;8.55;6.18;;;17.70;41.50;;;;;;5070198;28;20058;-53
2020/12/08 11:32:24;;;;;;;7.75;4.78;;;17.60;41.30;;;;;;5071870;28;20051;-49
2020/12/08 11:34:51;;;;;;;6.18;5.07;;;17.70;41.30;;;;;;5082987;28;20044;-50
2020/12/08 11:37:19;;;;;;;3.10;2.75;;;17.60;41.80;;;;;;5077049;28;20138;-53
2020/12/08 11:39:46;;;;;;;6.03;3.42;;;17.60;41.60;;;;;;5073465;28;20072;-49
2020/12/08 11:42:14;;;;;;;10.27;5.05;;;17.60;41.50;;;;;;5071847;28;20135;-52
2020/12/08 11:44:42;;;;;;;8.25;5.43;;;17.70;41.40;;;;;;5085975;28;20094;-50
2020/12/08 11:47:10;;;;;;;7.03;3.97;;;17.70;41.30;;;;;;5076223;28;20044;-50
2020/12/08 11:49:37;;;;;;;7.78;4.43;;;17.70;41.40;;;;;;5083003;28;20079;-49
2020/12/08 11:52:05;;;;;;;5.00;4.53;;;17.70;41.30;;;;;;5080280;28;20040;-48
2020/12/08 11:54:32;;;;;;;4.32;2.83;;;17.70;41.40;;;;;;5085321;28;20047;-47
2020/12/08 11:56:59;;;;;;;3.80;2.95;;;17.70;41.40;;;;;;5070185;28;20067;-48
2020/12/08 11:59:26;;;;;;;3.63;2.75;;;17.70;41.50;;;;;;5076624;28;20074;-51
2020/12/08 12:01:53;;;;;;;5.47;3.58;;;17.70;41.50;;;;;;5084884;28;20055;-48
2020/12/08 12:04:20;;;;;;;4.93;2.65;;;17.70;41.90;;;;;;5082779;28;20071;-48
2020/12/08 12:06:46;;;;;;;4.20;3.17;;;17.70;41.90;;;;;;5083944;28;20097;-48
2020/12/08 12:09:13;;;;;;;4.35;2.50;;;17.70;41.90;;;;;;5084501;28;20071;-48
2020/12/08 12:11:41;;;;;;;3.90;3.17;;;17.70;41.80;;;;;;5084835;28;20040;-49
2020/12/08 12:14:08;;;;;;;3.80;2.88;;;17.70;41.90;;;;;;5084231;28;20040;-48
2020/12/08 12:16:34;;;;;;;4.43;3.58;;;17.70;42.00;;;;;;5082429;28;20046;-48
2020/12/08 12:19:01;;;;;;;4.30;3.80;;;17.70;41.70;;;;;;5083849;28;20075;-51
2020/12/08 12:21:28;;;;;;;3.05;2.72;;;17.70;41.50;;;;;;5082557;28;20045;-49
2020/12/08 12:23:57;;;;;;;4.38;3.75;;;17.70;41.50;;;;;;5085709;28;20051;-50
2020/12/08 12:26:24;;;;;;;12.98;4.68;;;17.70;41.40;;;;;;5086727;28;20047;-53
2020/12/08 12:28:53;;;;;;;7.20;3.85;;;17.70;41.40;;;;;;5071666;28;20053;-49
2020/12/08 12:31:20;;;;;;;7.43;4.65;;;17.70;41.30;;;;;;5073401;28;20064;-51
2020/12/08 12:33:48;;;;;;;8.13;4.60;;;17.70;41.30;;;;;;5079042;28;20044;-52
2020/12/08 12:36:15;;;;;;;5.45;3.75;;;17.80;41.30;;;;;;5085036;28;20139;-51
2020/12/08 12:38:42;;;;;;;14.27;7.68;;;17.70;41.20;;;;;;5057096;28;20040;-50
2020/12/08 12:41:08;;;;;;;12.80;6.15;;;17.80;41.20;;;;;;5073217;28;20072;-48
2020/12/08 12:43:35;;;;;;;8.93;5.75;;;17.80;41.20;;;;;;5081115;28;20572;-51
2020/12/08 12:46:03;;;;;;;6.55;4.95;;;17.80;41.20;;;;;;5073373;28;20573;-49
2020/12/08 12:48:30;;;;;;;11.68;4.65;;;17.80;41.10;;;;;;5073319;28;20036;-51